Time;durP1;ratioP1;P1;durP2;ratioP2;P2;SDS_P1;SDS_P2;PMS_P1;PMS_P2;Temp;Humidity;BMP_temperature;BMP_pressure;BME280_temperature;BME280_humidity;BME280_pressure;Samples;Min_cycle;Max_cycle;Signal;HPM_P1;HPM_P2
2021/01/21 00:03:18;;;;;;;;;;;;;;;-144.34;100.00;60189.88;5015706;28;19917;-87
2021/01/21 00:06:43;;;;;;;;;;;;;;;-144.34;100.00;60189.88;5016788;28;19916;-87
2021/01/21 00:10:07;;;;;;;;;;;;;;;-144.34;100.00;60189.88;5028667;28;20074;-87
2021/01/21 00:13:31;;;;;;;;;;;;;;;-144.34;100.00;60189.88;5022394;28;20031;-87
2021/01/21 00:16:55;;;;;;;;;;;;;;;-144.34;100.00;60189.88;5013770;28;20319;-88
2021/01/21 00:20:19;;;;;;;;;;;;;;;-144.34;100.00;60189.88;5015620;28;19963;-87
2021/01/21 00:23:43;;;;;;;;;;;;;;;-144.34;100.00;60189.88;5014242;28;19952;-88
2021/01/21 00:27:07;;;;;;;;;;;;;;;-144.34;100.00;60189.88;5030721;28;19913;-88
2021/01/21 00:30:31;;;;;;;;;;;;;;;-144.34;100.00;60189.88;5026746;28;19925;-87
2021/01/21 00:33:55;;;;;;;;;;;;;;;-144.34;100.00;60189.88;5008181;28;19971;-87
2021/01/21 00:37:19;;;;;;;;;;;;;;;-144.34;100.00;60189.88;5009583;28;20364;-88
2021/01/21 00:40:42;;;;;;;;;;;;;;;-144.34;100.00;60189.88;5031332;28;19913;-87
2021/01/21 00:44:06;;;;;;;;;;;;;;;-144.34;100.00;60189.88;5022119;28;19917;-89
2021/01/21 00:47:31;;;;;;;;;;;;;;;-144.34;100.00;60189.88;5029665;28;19959;-89
2021/01/21 00:50:55;;;;;;;;;;;;;;;-144.34;100.00;60189.88;5008443;28;19951;-89
2021/01/21 00:54:19;;;;;;;;;;;;;;;-144.34;100.00;60189.88;5016472;28;19925;-88
2021/01/21 00:57:43;;;;;;;;;;;;;;;-144.34;100.00;60189.88;5017000;28;20000;-89
2021/01/21 01:01:07;;;;;;;;;;;;;;;-144.34;100.00;60189.88;5031879;28;19971;-88
2021/01/21 01:04:31;;;;;;;;;;;;;;;-144.34;100.00;60189.88;5009180;28;19977;-87
2021/01/21 01:07:54;;;;;;;;;;;;;;;-144.34;100.00;60189.88;5023258;28;20207;-88
2021/01/21 01:11:18;;;;;;;;;;;;;;;-144.34;100.00;60189.88;5033044;28;19924;-88
2021/01/21 01:14:42;;;;;;;;;;;;;;;-144.34;100.00;60189.88;5034564;28;19913;-88
2021/01/21 01:18:06;;;;;;;;;;;;;;;-144.34;100.00;60189.88;5013750;28;19968;-87
2021/01/21 01:21:30;;;;;;;;;;;;;;;-144.34;100.00;60189.88;5009832;28;19924;-87
2021/01/21 01:24:54;;;;;;;;;;;;;;;-144.34;100.00;60189.88;5028811;28;19913;-87
2021/01/21 01:28:18;;;;;;;;;;;;;;;-144.34;100.00;60189.88;5008445;28;20273;-86
2021/01/21 01:31:41;;;;;;;;;;;;;;;-144.34;100.00;60189.88;5022256;28;19917;-87
2021/01/21 01:35:06;;;;;;;;;;;;;;;-144.34;100.00;60189.88;5012336;28;20008;-87
2021/01/21 01:38:30;;;;;;;;;;;;;;;-144.34;100.00;60189.88;5032146;28;19971;-89
2021/01/21 01:41:53;;;;;;;;;;;;;;;-144.34;100.00;60189.88;5009482;28;19923;-87
2021/01/21 01:45:17;;;;;;;;;;;;;;;-144.34;100.00;60189.88;5029717;28;19970;-88
2021/01/21 01:48:41;;;;;;;;;;;;;;;-144.34;100.00;60189.88;5024533;28;19925;-88
2021/01/21 01:52:05;;;;;;;;;;;;;;;-144.34;100.00;60189.88;5018876;28;19925;-88
2021/01/21 01:55:29;;;;;;;;;;;;;;;-144.34;100.00;60189.88;5025631;28;19917;-88
2021/01/21 01:58:53;;;;;;;;;;;;;;;-144.34;100.00;60189.88;5030452;28;19927;-88
2021/01/21 02:02:17;;;;;;;;;;;;;;;-144.34;100.00;60189.88;5011280;28;19979;-87
2021/01/21 02:05:41;;;;;;;;;;;;;;;-144.34;100.00;60189.88;5024733;28;19947;-88
2021/01/21 02:09:05;;;;;;;;;;;;;;;-144.34;100.00;60189.88;5017290;28;19924;-87
2021/01/21 02:12:29;;;;;;;;;;;;;;;-144.34;100.00;60189.88;5018637;28;19944;-87
2021/01/21 02:15:54;;;;;;;;;;;;;;;-144.34;100.00;60189.88;5053593;28;20368;-88
2021/01/21 02:19:37;;;;;;;;;;;;;;;-144.34;100.00;60189.88;5033036;28;20292;-88
2021/01/21 02:23:18;;;;;;;;;;;;;;;-144.34;100.00;60189.88;5032920;28;19917;-88
2021/01/21 02:26:45;;;;;;;;;;;;;;;-144.34;100.00;60189.88;5026229;28;19943;-88
2021/01/21 02:30:10;;;;;;;;;;;;;;;-144.34;100.00;60189.88;5031586;28;20575;-88
2021/01/21 02:33:53;;;;;;;;;;;;;;;-144.34;100.00;60189.88;5033183;28;20371;-88
2021/01/21 02:37:24;;;;;;;;;;;;;;;-144.34;100.00;60189.88;5034715;28;19913;-88
2021/01/21 02:40:51;;;;;;;;;;;;;;;-144.34;100.00;60189.88;5033359;28;20034;-88
2021/01/21 02:44:14;;;;;;;;;;;;;;;-144.34;100.00;60189.88;5018792;28;20422;-88
2021/01/21 02:47:38;;;;;;;;;;;;;;;-144.34;100.00;60189.88;5025295;28;19925;-87
2021/01/21 02:51:15;;;;;;;;;;;;;;;-144.34;100.00;60189.88;5013623;28;19925;-87
2021/01/21 02:54:41;;;;;;;;;;;;;;;-144.34;100.00;60189.88;5016552;28;19921;-88
2021/01/21 02:58:12;;;;;;;;;;;;;;;-144.34;100.00;60189.88;5014956;28;19955;-87
2021/01/21 03:01:36;;;;;;;;;;;;;;;-144.34;100.00;60189.88;5025847;28;20398;-88
2021/01/21 03:05:00;;;;;;;;;;;;;;;-144.34;100.00;60189.88;5025801;28;19916;-88
2021/01/21 03:08:26;;;;;;;;;;;;;;;-144.34;100.00;60189.88;5034878;28;19956;-88
2021/01/21 03:11:50;;;;;;;;;;;;;;;-144.34;100.00;60189.88;5034391;28;19921;-89
2021/01/21 03:15:14;;;;;;;;;;;;;;;-144.34;100.00;60189.88;5025887;28;19920;-87
2021/01/21 03:18:38;;;;;;;;;;;;;;;-144.34;100.00;60189.88;5025746;28;19986;-88
2021/01/21 03:22:03;;;;;;;;;;;;;;;-144.34;100.00;60189.88;5014187;28;19921;-89
2021/01/21 03:25:27;;;;;;;;;;;;;;;-144.34;100.00;60189.88;5018402;28;19917;-88
2021/01/21 03:28:50;;;;;;;;;;;;;;;-144.34;100.00;60189.88;5024934;28;19944;-89
2021/01/21 03:32:14;;;;;;;;;;;;;;;-144.34;100.00;60189.88;5031312;28;19917;-88
2021/01/21 03:35:38;;;;;;;;;;;;;;;-144.34;100.00;60189.88;5010626;28;19917;-88
2021/01/21 03:39:02;;;;;;;;;;;;;;;-144.34;100.00;60189.88;5025503;28;20624;-88
2021/01/21 03:42:26;;;;;;;;;;;;;;;-144.34;100.00;60189.88;5021537;28;19970;-89
2021/01/21 03:45:50;;;;;;;;;;;;;;;-144.34;100.00;60189.88;5015187;28;20383;-88
2021/01/21 03:49:14;;;;;;;;;;;;;;;-144.34;100.00;60189.88;5025736;28;19913;-89
2021/01/21 03:52:38;;;;;;;;;;;;;;;-144.34;100.00;60189.88;5024946;28;19925;-88
2021/01/21 03:56:02;;;;;;;;;;;;;;;-144.34;100.00;60189.88;5033232;28;19970;-88
2021/01/21 03:59:25;;;;;;;;;;;;;;;-144.34;100.00;60189.88;5015200;28;19952;-87
2021/01/21 04:02:49;;;;;;;;;;;;;;;-144.34;100.00;60189.88;5041369;28;19916;-87
2021/01/21 04:06:13;;;;;;;;;;;;;;;-144.34;100.00;60189.88;5017209;28;19913;-88
2021/01/21 04:09:37;;;;;;;;;;;;;;;-144.34;100.00;60189.88;5029374;28;19921;-88
2021/01/21 04:13:01;;;;;;;;;;;;;;;-144.34;100.00;60189.88;5031462;28;19978;-87
2021/01/21 04:16:25;;;;;;;;;;;;;;;-144.34;100.00;60189.88;5010827;28;19913;-88
2021/01/21 04:19:49;;;;;;;;;;;;;;;-144.34;100.00;60189.88;5010674;28;20514;-87
2021/01/21 04:23:12;;;;;;;;;;;;;;;-144.34;100.00;60189.88;5008674;28;20422;-87
2021/01/21 04:26:36;;;;;;;;;;;;;;;-144.34;100.00;60189.88;5022715;28;19913;-88
2021/01/21 04:30:00;;;;;;;;;;;;;;;-144.34;100.00;60189.88;5022743;28;20016;-87
2021/01/21 04:33:24;;;;;;;;;;;;;;;-144.34;100.00;60189.88;5023285;28;20047;-90
2021/01/21 04:36:48;;;;;;;;;;;;;;;-144.34;100.00;60189.88;5015883;28;19967;-87
2021/01/21 04:40:12;;;;;;;;;;;;;;;-144.34;100.00;60189.88;5010352;28;20020;-87
2021/01/21 04:43:36;;;;;;;;;;;;;;;-144.34;100.00;60189.88;5032059;28;19932;-88
2021/01/21 04:46:59;;;;;;;;;;;;;;;-144.34;100.00;60189.88;5010715;28;19916;-88
2021/01/21 04:50:23;;;;;;;;;;;;;;;-144.34;100.00;60189.88;5019510;28;20114;-87
2021/01/21 04:53:48;;;;;;;;;;;;;;;-144.34;100.00;60189.88;5014851;28;20470;-87
2021/01/21 04:57:13;;;;;;;;;;;;;;;-144.34;100.00;60189.88;5023046;28;20398;-87
2021/01/21 05:00:38;;;;;;;;;;;;;;;-144.34;100.00;60189.88;5009247;28;19928;-86
2021/01/21 05:04:02;;;;;;;;;;;;;;;-144.34;100.00;60189.88;5023670;28;20127;-88
2021/01/21 05:07:26;;;;;;;;;;;;;;;-144.34;100.00;60189.88;5015431;28;19947;-87
2021/01/21 05:10:50;;;;;;;;;;;;;;;-144.34;100.00;60189.88;5023028;28;19920;-88
2021/01/21 05:14:14;;;;;;;;;;;;;;;-144.34;100.00;60189.88;5018954;28;20295;-87
2021/01/21 05:17:38;;;;;;;;;;;;;;;-144.34;100.00;60189.88;5015081;28;19920;-88
2021/01/21 05:21:03;;;;;;;;;;;;;;;-144.34;100.00;60189.88;5022696;28;19931;-87
2021/01/21 05:24:27;;;;;;;;;;;;;;;-144.34;100.00;60189.88;5013126;28;20079;-88
2021/01/21 05:27:51;;;;;;;;;;;;;;;-144.34;100.00;60189.88;5015131;28;20007;-88
2021/01/21 05:31:15;;;;;;;;;;;;;;;-144.34;100.00;60189.88;5019638;28;19964;-87
2021/01/21 05:34:39;;;;;;;;;;;;;;;-144.34;100.00;60189.88;5027689;28;19917;-88
2021/01/21 05:38:03;;;;;;;;;;;;;;;-144.34;100.00;60189.88;5021398;28;19963;-88
2021/01/21 05:41:27;;;;;;;;;;;;;;;-144.34;100.00;60189.88;5026896;28;20299;-88
2021/01/21 05:44:51;;;;;;;;;;;;;;;-144.34;100.00;60189.88;5024911;28;19919;-88
2021/01/21 05:48:15;;;;;;;;;;;;;;;-144.34;100.00;60189.88;5018440;28;19928;-87
2021/01/21 05:51:39;;;;;;;;;;;;;;;-144.34;100.00;60189.88;5017764;28;19935;-88
2021/01/21 05:55:03;;;;;;;;;;;;;;;-144.34;100.00;60189.88;5035292;28;19955;-88
2021/01/21 05:58:26;;;;;;;;;;;;;;;-144.34;100.00;60189.88;5018293;28;19960;-87
2021/01/21 06:01:54;;;;;;;;;;;;;;;-144.34;100.00;60189.88;5026402;28;19917;-87
2021/01/21 06:05:19;;;;;;;;;;;;;;;-144.34;100.00;60189.88;5018954;28;19939;-88
2021/01/21 06:08:43;;;;;;;;;;;;;;;-144.34;100.00;60189.88;5017954;28;19921;-88
2021/01/21 06:12:07;;;;;;;;;;;;;;;-144.34;100.00;60189.88;5026367;28;19952;-87
2021/01/21 06:15:31;;;;;;;;;;;;;;;-144.34;100.00;60189.88;5018898;28;20023;-87
2021/01/21 06:18:55;;;;;;;;;;;;;;;-144.34;100.00;60189.88;5025051;28;19924;-89
2021/01/21 06:22:19;;;;;;;;;;;;;;;-144.34;100.00;60189.88;5018536;28;20020;-87
2021/01/21 06:25:43;;;;;;;;;;;;;;;-144.34;100.00;60189.88;5034953;28;19923;-88
2021/01/21 06:29:08;;;;;;;;;;;;;;;-144.34;100.00;60189.88;5019436;28;19917;-87
2021/01/21 06:32:37;;;;;;;;;;;;;;;-144.34;100.00;60189.88;5015845;28;20075;-87
2021/01/21 06:36:02;;;;;;;;;;;;;;;-144.34;100.00;60189.88;5011803;28;20675;-88
2021/01/21 06:39:33;;;;;;;;;;;;;;;-144.34;100.00;60189.88;5026304;28;19917;-88
2021/01/21 06:42:58;;;;;;;;;;;;;;;-144.34;100.00;60189.88;5027142;28;19920;-87
2021/01/21 06:46:22;;;;;;;;;;;;;;;-144.34;100.00;60189.88;5037061;28;20661;-87
2021/01/21 06:49:46;;;;;;;;;;;;;;;-144.34;100.00;60189.88;5030386;28;19917;-90
2021/01/21 06:53:10;;;;;;;;;;;;;;;-144.34;100.00;60189.88;5031419;28;19928;-88
2021/01/21 06:56:48;;;;;;;;;;;;;;;-144.34;100.00;60189.88;5022591;28;19912;-88
2021/01/21 07:00:13;;;;;;;;;;;;;;;-144.34;100.00;60189.88;5034093;28;20008;-88
2021/01/21 07:03:38;;;;;;;;;;;;;;;-144.34;100.00;60189.88;5035300;28;19913;-87
2021/01/21 07:07:03;;;;;;;;;;;;;;;-144.34;100.00;60189.88;5030016;28;19920;-88
2021/01/21 07:10:35;;;;;;;;;;;;;;;-144.34;100.00;60189.88;5007236;28;19967;-85
2021/01/21 07:14:04;;;;;;;;;;;;;;;-144.34;100.00;60189.88;5027203;28;19925;-87
2021/01/21 07:17:29;;;;;;;;;;;;;;;-144.34;100.00;60189.88;5010213;28;19921;-86
2021/01/21 07:20:59;;;;;;;;;;;;;;;-144.34;100.00;60189.88;5012134;28;19921;-87
2021/01/21 07:24:23;;;;;;;;;;;;;;;-144.34;100.00;60189.88;5028283;28;19921;-88
2021/01/21 07:27:47;;;;;;;;;;;;;;;-144.34;100.00;60189.88;5013772;28;19949;-87
2021/01/21 07:31:11;;;;;;;;;;;;;;;-144.34;100.00;60189.88;5035908;28;19921;-88
2021/01/21 07:34:35;;;;;;;;;;;;;;;-144.34;100.00;60189.88;5032444;28;20808;-88
2021/01/21 07:37:59;;;;;;;;;;;;;;;-144.34;100.00;60189.88;5029737;28;19917;-89
2021/01/21 07:41:41;;;;;;;;;;;;;;;-144.34;100.00;60189.88;5020635;28;20399;-88
2021/01/21 07:45:24;;;;;;;;;;;;;;;-144.34;100.00;60189.88;5022261;28;19924;-87
2021/01/21 07:48:48;;;;;;;;;;;;;;;-144.34;100.00;60189.88;5019978;28;19948;-89
2021/01/21 07:52:11;;;;;;;;;;;;;;;-144.34;100.00;60189.88;5023197;28;19925;-89
2021/01/21 07:55:36;;;;;;;;;;;;;;;-144.34;100.00;60189.88;5027992;28;19967;-88
2021/01/21 07:59:00;;;;;;;;;;;;;;;-144.34;100.00;60189.88;5010896;28;20441;-87
2021/01/21 08:02:24;;;;;;;;;;;;;;;-144.34;100.00;60189.88;5017847;28;19964;-88
2021/01/21 08:05:49;;;;;;;;;;;;;;;-144.34;100.00;60189.88;5012390;28;20785;-88
2021/01/21 08:09:13;;;;;;;;;;;;;;;-144.34;100.00;60189.88;5024869;28;19921;-88
2021/01/21 08:12:37;;;;;;;;;;;;;;;-144.34;100.00;60189.88;5021036;28;19928;-87
2021/01/21 08:16:02;;;;;;;;;;;;;;;-144.34;100.00;60189.88;5030239;28;19978;-89
2021/01/21 08:19:26;;;;;;;;;;;;;;;-144.34;100.00;60189.88;5026291;28;20264;-88
2021/01/21 08:22:58;;;;;;;;;;;;;;;-144.34;100.00;60189.88;5021608;28;19917;-87
2021/01/21 08:26:22;;;;;;;;;;;;;;;-144.34;100.00;60189.88;5030781;28;19943;-88
2021/01/21 08:29:46;;;;;;;;;;;;;;;-144.34;100.00;60189.88;5033286;28;19964;-88
2021/01/21 08:33:14;;;;;;;;;;;;;;;-144.34;100.00;60189.88;5017875;28;19961;-89
2021/01/21 08:36:38;;;;;;;;;;;;;;;-144.34;100.00;60189.88;5023421;28;19952;-88
2021/01/21 08:40:02;;;;;;;;;;;;;;;-144.34;100.00;60189.88;5024207;28;19916;-88
2021/01/21 08:43:26;;;;;;;;;;;;;;;-144.34;100.00;60189.88;5023776;28;19982;-87
2021/01/21 08:46:57;;;;;;;;;;;;;;;-144.34;100.00;60189.88;5025110;28;20003;-90
2021/01/21 08:50:21;;;;;;;;;;;;;;;-144.34;100.00;60189.88;5013776;28;19913;-88
2021/01/21 08:53:46;;;;;;;;;;;;;;;-144.34;100.00;60189.88;5025660;28;19921;-89
2021/01/21 08:57:11;;;;;;;;;;;;;;;-144.34;100.00;60189.88;5028628;28;19920;-89
2021/01/21 09:00:35;;;;;;;;;;;;;;;-144.34;100.00;60189.88;5048130;28;19913;-88
2021/01/21 09:03:59;;;;;;;;;;;;;;;-144.34;100.00;60189.88;5028908;28;20421;-89
2021/01/21 09:07:23;;;;;;;;;;;;;;;-144.34;100.00;60189.88;5038264;28;19963;-88
2021/01/21 09:10:47;;;;;;;;;;;;;;;-144.34;100.00;60189.88;5025597;28;19952;-89
2021/01/21 09:13:54;;;;;;;;;;;;;;;7.19;79.36;97819.94;5029601;28;20379;-88
2021/01/21 09:16:46;;;;;;;;;;;;;;;7.19;79.36;97819.94;5019824;28;20003;-87
2021/01/21 09:20:20;;;;;;;;;;;;;;;-144.34;100.00;60189.88;5009449;28;19967;-87
2021/01/21 09:22:46;;;;;;;;;;;;;;;-144.34;100.00;60189.88;5026276;28;19917;-89
2021/01/21 09:25:14;;;;;;;;;;;;;;;7.19;79.36;97819.94;5027565;28;19917;-89
2021/01/21 09:27:40;;;;;;;;;;;;;;;-144.34;100.00;60189.88;5029142;28;19917;-89
2021/01/21 09:30:06;;;;;;;;;;;;;;;-144.34;100.00;60189.88;5025707;28;19917;-88
2021/01/21 09:32:34;;;;;;;;;;;;;;;-144.34;100.00;60189.88;5026716;28;19917;-88
2021/01/21 09:35:07;;;;;;;;;;;;;;;-144.34;100.00;60189.88;5036677;28;19949;-85
2021/01/21 09:37:33;;;;;;;;;;;;;;;-144.34;100.00;60189.88;5032988;28;20365;-88
2021/01/21 09:39:59;;;;;;;;;;;;;;;-144.34;100.00;60189.88;5022945;28;20406;-87
2021/01/21 09:42:28;;;;;;;;;;;;;;;-144.34;100.00;60189.88;5019775;28;20019;-88
2021/01/21 09:44:55;;;;;;;;;;;;;;;-144.34;100.00;60189.88;5022828;28;19916;-87
2021/01/21 09:47:20;;;;;;;;;;;;;;;-144.34;100.00;60189.88;5028660;28;19912;-89
2021/01/21 09:49:46;;;;;;;;;;;;;;;-144.34;100.00;60189.88;5027211;28;19968;-87
2021/01/21 09:52:11;;;;;;;;;;;;;;;-144.34;100.00;60189.88;5027065;28;19988;-89
2021/01/21 09:54:37;;;;;;;;;;;;;;;-144.34;100.00;60189.88;5029009;28;19921;-88
2021/01/21 09:57:03;;;;;;;;;;;;;;;-144.34;100.00;60189.88;5026171;28;19917;-88
2021/01/21 09:59:28;;;;;;;;;;;;;;;-144.34;100.00;60189.88;5026719;28;19920;-89
2021/01/21 10:01:53;;;;;;;;;;;;;;;-144.34;100.00;60189.88;5033339;28;19913;-89
2021/01/21 10:04:19;;;;;;;;;;;;;;;-144.34;100.00;60189.88;5026053;28;19917;-89
2021/01/21 10:06:45;;;;;;;;;;;;;;;-144.34;100.00;60189.88;5028816;28;19917;-88
2021/01/21 10:09:11;;;;;;;;;;;;;;;-144.34;100.00;60189.88;5029734;28;19979;-89
2021/01/21 10:11:36;;;;;;;;;;;;;;;-144.34;100.00;60189.88;5010451;28;19925;-86
2021/01/21 10:14:02;;;;;;;;;;;;;;;-144.34;100.00;60189.88;5021746;28;19928;-87
2021/01/21 10:16:28;;;;;;;;;;;;;;;-144.34;100.00;60189.88;5020328;28;19918;-89
2021/01/21 10:18:53;;;;;;;;;;;;;;;-144.34;100.00;60189.88;5023422;28;19939;-88
2021/01/21 10:21:18;;;;;;;;;;;;;;;-144.34;100.00;60189.88;5024668;28;19917;-88
2021/01/21 10:23:44;;;;;;;;;;;;;;;-144.34;100.00;60189.88;5023779;28;19917;-88
2021/01/21 10:26:11;;;;;;;;;;;;;;;-144.34;100.00;60189.88;5032264;28;19968;-89
2021/01/21 10:28:36;;;;;;;;;;;;;;;-144.34;100.00;60189.88;5032587;28;19919;-88
2021/01/21 10:31:02;;;;;;;;;;;;;;;-144.34;100.00;60189.88;5030195;28;19917;-89
2021/01/21 10:33:27;;;;;;;;;;;;;;;-144.34;100.00;60189.88;5028530;28;19916;-89
2021/01/21 10:35:52;;;;;;;;;;;;;;;-144.34;100.00;60189.88;5017005;28;19968;-89
2021/01/21 10:38:18;;;;;;;;;;;;;;;-144.34;100.00;60189.88;5024477;28;19924;-88
2021/01/21 10:40:43;;;;;;;;;;;;;;;-144.34;100.00;60189.88;5022845;28;19971;-88
2021/01/21 10:43:09;;;;;;;;;;;;;;;-144.34;100.00;60189.88;5012617;28;19917;-88
2021/01/21 10:45:34;;;;;;;;;;;;;;;-144.34;100.00;60189.88;5024121;28;19920;-88
2021/01/21 10:47:59;;;;;;;;;;;;;;;-144.34;100.00;60189.88;5026132;28;20312;-87
2021/01/21 10:50:25;;;;;;;;;;;;;;;-144.34;100.00;60189.88;5019620;28;19921;-90
2021/01/21 10:52:50;;;;;;;;;;;;;;;-144.34;100.00;60189.88;5033034;28;19916;-89
2021/01/21 10:55:16;;;;;;;;;;;;;;;-144.34;100.00;60189.88;5031783;28;19967;-88
2021/01/21 10:57:41;;;;;;;;;;;;;;;-144.34;100.00;60189.88;5033824;28;19983;-87
2021/01/21 11:00:07;;;;;;;;;;;;;;;-144.34;100.00;60189.88;5025644;28;19924;-88
2021/01/21 11:02:32;;;;;;;;;;;;;;;-144.34;100.00;60189.88;5023908;28;20039;-87
2021/01/21 11:04:57;;;;;;;;;;;;;;;-144.34;100.00;60189.88;5015019;28;19960;-88
2021/01/21 11:07:23;;;;;;;;;;;;;;;-144.34;100.00;60189.88;5026301;28;19917;-86
2021/01/21 11:09:48;;;;;;;;;;;;;;;-144.34;100.00;60189.88;5021209;28;19917;-87
2021/01/21 11:12:16;;;;;;;;;;;;;;;-144.34;100.00;60189.88;5025217;28;19921;-88
2021/01/21 11:14:41;;;;;;;;;;;;;;;-144.34;100.00;60189.88;5034898;28;19970;-88
2021/01/21 11:17:06;;;;;;;;;;;;;;;-144.34;100.00;60189.88;5019830;28;19913;-90
2021/01/21 11:19:32;;;;;;;;;;;;;;;-144.34;100.00;60189.88;5030618;28;19978;-90
2021/01/21 11:21:57;;;;;;;;;;;;;;;-144.34;100.00;60189.88;5029642;28;20549;-89
2021/01/21 11:24:22;;;;;;;;;;;;;;;-144.34;100.00;60189.88;5033107;28;20010;-89
2021/01/21 11:26:48;;;;;;;;;;;;;;;-144.34;100.00;60189.88;5034982;28;19927;-89
2021/01/21 11:29:13;;;;;;;;;;;;;;;-144.34;100.00;60189.88;5033300;28;19913;-89
2021/01/21 11:31:56;;;;;;;;;;;;;;;-144.34;100.00;60189.88;5035088;28;20334;-90
2021/01/21 11:34:25;;;;;;;;;;;;;;;-144.34;100.00;60189.88;5036870;28;20614;-90
2021/01/21 11:36:50;;;;;;;;;;;;;;;-144.34;100.00;60189.88;5036086;28;19913;-90
2021/01/21 11:39:16;;;;;;;;;;;;;;;-144.34;100.00;60189.88;5034974;28;19919;-90
2021/01/21 11:41:41;;;;;;;;;;;;;;;-144.34;100.00;60189.88;5034756;28;19917;-91
2021/01/21 11:47:09;;;;;;;;;;;;;;;-144.34;100.00;60189.88;5051572;28;19931;-90
2021/01/21 11:49:40;;;;;;;;;;;;;;;-144.34;100.00;60189.88;5035134;28;20019;-91
2021/01/21 11:52:05;;;;;;;;;;;;;;;-144.34;100.00;60189.88;5034929;28;19925;-90
2021/01/21 11:54:31;;;;;;;;;;;;;;;-144.34;100.00;60189.88;5034530;28;19913;-89
2021/01/21 11:56:56;;;;;;;;;;;;;;;-144.34;100.00;60189.88;5031904;28;20400;-90
2021/01/21 11:59:21;;;;;;;;;;;;;;;-144.34;100.00;60189.88;5014800;28;19928;-90
2021/01/21 12:01:47;;;;;;;;;;;;;;;-144.34;100.00;60189.88;5018988;28;19917;-89
2021/01/21 12:04:13;;;;;;;;;;;;;;;-144.34;100.00;60189.88;5042698;28;20338;-90
2021/01/21 12:06:39;;;;;;;;;;;;;;;-144.34;100.00;60189.88;5024626;28;20321;-90
2021/01/21 12:09:04;;;;;;;;;;;;;;;-144.34;100.00;60189.88;5038920;28;20019;-90
2021/01/21 12:11:30;;;;;;;;;;;;;;;-144.34;100.00;60189.88;5028776;28;19924;-90
2021/01/21 12:13:55;;;;;;;;;;;;;;;-144.34;100.00;60189.88;5022257;28;19917;-90
2021/01/21 12:16:22;;;;;;;;;;;;;;;-144.34;100.00;60189.88;5017928;28;19917;-89
2021/01/21 12:18:47;;;;;;;;;;;;;;;-144.34;100.00;60189.88;5022854;28;19937;-90
2021/01/21 12:21:13;;;;;;;;;;;;;;;-144.34;100.00;60189.88;5019661;28;19913;-88
2021/01/21 12:23:39;;;;;;;;;;;;;;;-144.34;100.00;60189.88;5025821;28;20008;-90
2021/01/21 12:26:08;;;;;;;;;;;;;;;-144.34;100.00;60189.88;5035700;28;19913;-90
2021/01/21 12:28:34;;;;;;;;;;;;;;;-144.34;100.00;60189.88;5028623;28;19920;-89
2021/01/21 12:31:00;;;;;;;;;;;;;;;-144.34;100.00;60189.88;5026730;28;19924;-89
2021/01/21 12:33:25;;;;;;;;;;;;;;;-144.34;100.00;60189.88;5038438;28;20611;-90
2021/01/21 12:35:50;;;;;;;;;;;;;;;-144.34;100.00;60189.88;5019058;28;20393;-89
2021/01/21 12:38:16;;;;;;;;;;;;;;;-144.34;100.00;60189.88;5039993;28;19921;-89
2021/01/21 12:40:41;;;;;;;;;;;;;;;-144.34;100.00;60189.88;5020208;28;19912;-89
2021/01/21 12:43:07;;;;;;;;;;;;;;;-144.34;100.00;60189.88;5020949;28;20308;-90
2021/01/21 12:45:32;;;;;;;;;;;;;;;-144.34;100.00;60189.88;5028760;28;19913;-90
2021/01/21 12:47:57;;;;;;;;;;;;;;;-144.34;100.00;60189.88;5016027;28;20586;-90
2021/01/21 12:50:23;;;;;;;;;;;;;;;-144.34;100.00;60189.88;5029027;28;20290;-90
2021/01/21 12:52:48;;;;;;;;;;;;;;;-144.34;100.00;60189.88;5026190;28;20292;-90
2021/01/21 12:55:14;;;;;;;;;;;;;;;-144.34;100.00;60189.88;5020726;28;19920;-90
2021/01/21 12:57:39;;;;;;;;;;;;;;;-144.34;100.00;60189.88;5041093;28;20011;-90
2021/01/21 13:00:07;;;;;;;;;;;;;;;-144.34;100.00;60189.88;5020359;28;19920;-89
2021/01/21 13:02:36;;;;;;;;;;;;;;;-144.34;100.00;60189.88;5041073;28;20012;-89
2021/01/21 13:05:01;;;;;;;;;;;;;;;-144.34;100.00;60189.88;5021412;28;19939;-90
2021/01/21 13:07:27;;;;;;;;;;;;;;;-144.34;100.00;60189.88;5028625;28;19924;-90
2021/01/21 13:09:52;;;;;;;;;;;;;;;-144.34;100.00;60189.88;5028535;28;20008;-90
2021/01/21 13:12:17;;;;;;;;;;;;;;;-144.34;100.00;60189.88;5027622;28;19921;-89
2021/01/21 13:14:43;;;;;;;;;;;;;;;-144.34;100.00;60189.88;5022506;28;19917;-90
2021/01/21 13:17:08;;;;;;;;;;;;;;;-144.34;100.00;60189.88;5026038;28;19917;-89
2021/01/21 13:19:34;;;;;;;;;;;;;;;-144.34;100.00;60189.88;5017715;28;19960;-89
2021/01/21 13:22:01;;;;;;;;;;;;;;;-144.34;100.00;60189.88;5030941;28;19912;-90
2021/01/21 13:24:26;;;;;;;;;;;;;;;-144.34;100.00;60189.88;5035953;28;19913;-90
2021/01/21 13:26:59;;;;;;;;;;;;;;;-144.34;100.00;60189.88;5035741;28;19990;-90
2021/01/21 13:29:25;;;;;;;;;;;;;;;-144.34;100.00;60189.88;5052404;28;19966;-90
2021/01/21 13:31:51;;;;;;;;;;;;;;;-144.34;100.00;60189.88;5035955;28;19920;-91
2021/01/21 13:34:55;;;;;;;;;;;;;;;-144.34;100.00;60189.88;5023866;28;19916;-93
2021/01/21 13:37:26;;;;;;;;;;;;;;;-144.34;100.00;60189.88;5034799;28;19944;-92
2021/01/21 13:43:46;;;;;;;;;;;;;;;-144.34;100.00;60189.88;5001015;28;20460;-92
2021/01/21 13:46:43;;;;;;;;;;;;;;;-144.34;100.00;60189.88;4987620;28;19914;-92
2021/01/21 14:19:32;;;;;;;;;;;;;;;-144.34;100.00;60189.88;4928746;29;19985;-90
2021/01/21 14:21:58;;;;;;;;;;;;;;;-144.34;100.00;60189.88;4945926;28;20388;-88
2021/01/21 14:24:23;;;;;;;;;;;;;;;-144.34;100.00;60189.88;4982135;28;19917;-90
2021/01/21 14:26:48;;;;;;;;;;;;;;;-144.34;100.00;60189.88;4981240;28;20012;-90
2021/01/21 14:29:14;;;;;;;;;;;;;;;-144.34;100.00;60189.88;5000275;28;19918;-89
2021/01/21 14:31:39;;;;;;;;;;;;;;;-144.34;100.00;60189.88;4986181;28;20007;-89
2021/01/21 14:34:05;;;;;;;;;;;;;;;-144.34;100.00;60189.88;5028810;28;20347;-89
2021/01/21 14:36:30;;;;;;;;;;;;;;;-144.34;100.00;60189.88;5028546;28;19913;-89
2021/01/21 14:38:55;;;;;;;;;;;;;;;-144.34;100.00;60189.88;5037187;28;19917;-88
2021/01/21 14:41:21;;;;;;;;;;;;;;;-144.34;100.00;60189.88;5040351;28;19951;-89
2021/01/21 14:43:46;;;;;;;;;;;;;;;-144.34;100.00;60189.88;5028283;28;20359;-89
2021/01/21 14:46:12;;;;;;;;;;;;;;;-144.34;100.00;60189.88;5028350;28;19917;-89
2021/01/21 14:48:37;;;;;;;;;;;;;;;-144.34;100.00;60189.88;5026525;28;19917;-89
2021/01/21 14:51:03;;;;;;;;;;;;;;;-144.34;100.00;60189.88;5039496;28;20013;-89
2021/01/21 14:53:28;;;;;;;;;;;;;;;-144.34;100.00;60189.88;5017106;28;19917;-89
2021/01/21 14:55:54;;;;;;;;;;;;;;;-144.34;100.00;60189.88;5027571;28;19917;-89
2021/01/21 14:58:19;;;;;;;;;;;;;;;-144.34;100.00;60189.88;5041519;28;19912;-91
2021/01/21 15:00:45;;;;;;;;;;;;;;;-144.34;100.00;60189.88;5047961;28;19917;-91
2021/01/21 15:03:10;;;;;;;;;;;;;;;-144.34;100.00;60189.88;5038346;28;20288;-90
2021/01/21 15:05:36;;;;;;;;;;;;;;;-144.34;100.00;60189.88;5031729;28;19917;-90
2021/01/21 15:08:01;;;;;;;;;;;;;;;-144.34;100.00;60189.88;5024411;28;20444;-91
2021/01/21 15:10:31;;;;;;;;;;;;;;;-144.34;100.00;60189.88;5019350;28;20389;-92
2021/01/21 15:15:42;;;;;;;;;;;;;;;-144.34;100.00;60189.88;5034099;28;19916;-88
2021/01/21 15:18:07;;;;;;;;;;;;;;;-144.34;100.00;60189.88;5027989;28;20379;-87
2021/01/21 15:20:32;;;;;;;;;;;;;;;-144.34;100.00;60189.88;5015601;28;19917;-89
2021/01/21 15:22:59;;;;;;;;;;;;;;;-144.34;100.00;60189.88;5021084;28;19932;-89
2021/01/21 15:25:25;;;;;;;;;;;;;;;-144.34;100.00;60189.88;5026793;28;20012;-90
2021/01/21 15:27:50;;;;;;;;;;;;;;;-144.34;100.00;60189.88;5031040;28;19999;-89
2021/01/21 15:30:16;;;;;;;;;;;;;;;-144.34;100.00;60189.88;5021412;28;19972;-89
2021/01/21 15:32:41;;;;;;;;;;;;;;;-144.34;100.00;60189.88;5037065;28;19975;-89
2021/01/21 15:35:07;;;;;;;;;;;;;;;-144.34;100.00;60189.88;5023335;28;20372;-89